sensor_id;sensor_type;location;lat;lon;timestamp;pressure;altitude;pressure_sealevel;temperature;humidity
10587;BME280;5341;47.606;7.576;2023-06-22T00:01:21;98702.06;;;27.17;52.06
10587;BME280;5341;47.606;7.576;2023-06-22T00:03:49;98694.63;;;27.18;52.17
10587;BME280;5341;47.606;7.576;2023-06-22T00:06:16;98696.56;;;27.17;52.17
10587;BME280;5341;47.606;7.576;2023-06-22T00:08:44;98703.19;;;27.16;52.12
10587;BME280;5341;47.606;7.576;2023-06-22T00:11:13;98698.78;;;27.15;52.16
10587;BME280;5341;47.606;7.576;2023-06-22T00:13:40;98711.72;;;27.14;51.90
10587;BME280;5341;47.606;7.576;2023-06-22T00:16:07;98718.28;;;27.13;52.01
10587;BME280;5341;47.606;7.576;2023-06-22T00:18:35;98710.34;;;27.12;52.19
10587;BME280;5341;47.606;7.576;2023-06-22T00:21:02;98706.78;;;27.11;52.15
10587;BME280;5341;47.606;7.576;2023-06-22T00:23:30;98703.22;;;27.11;51.90
10587;BME280;5341;47.606;7.576;2023-06-22T00:26:00;98699.13;;;27.08;52.32
10587;BME280;5341;47.606;7.576;2023-06-22T00:28:29;98700.25;;;27.07;52.13
10587;BME280;5341;47.606;7.576;2023-06-22T00:30:56;98695.06;;;27.06;52.12
10587;BME280;5341;47.606;7.576;2023-06-22T00:33:25;98691.78;;;27.04;51.99
10587;BME280;5341;47.606;7.576;2023-06-22T00:35:54;98683.84;;;27.02;52.48
10587;BME280;5341;47.606;7.576;2023-06-22T00:38:21;98683.03;;;27.02;52.48
10587;BME280;5341;47.606;7.576;2023-06-22T00:40:49;98680.00;;;26.98;52.24
10587;BME280;5341;47.606;7.576;2023-06-22T00:43:16;98688.81;;;26.95;52.58
10587;BME280;5341;47.606;7.576;2023-06-22T00:45:45;98689.13;;;26.94;52.26
10587;BME280;5341;47.606;7.576;2023-06-22T00:48:14;98684.75;;;26.93;52.65
10587;BME280;5341;47.606;7.576;2023-06-22T00:50:41;98689.41;;;26.92;52.79
10587;BME280;5341;47.606;7.576;2023-06-22T00:53:09;98691.34;;;26.92;52.39
10587;BME280;5341;47.606;7.576;2023-06-22T00:55:41;98699.03;;;26.90;52.54
10587;BME280;5341;47.606;7.576;2023-06-22T00:58:11;98698.50;;;26.87;52.45
10587;BME280;5341;47.606;7.576;2023-06-22T01:00:41;98693.31;;;26.86;52.61
10587;BME280;5341;47.606;7.576;2023-06-22T01:03:10;98697.97;;;26.85;52.65
10587;BME280;5341;47.606;7.576;2023-06-22T01:05:38;98703.75;;;26.84;52.76
10587;BME280;5341;47.606;7.576;2023-06-22T01:08:15;98697.44;;;26.83;52.79
10587;BME280;5341;47.606;7.576;2023-06-22T01:10:48;98696.09;;;26.81;52.72
10587;BME280;5341;47.606;7.576;2023-06-22T01:13:32;98696.69;;;26.78;52.71
10587;BME280;5341;47.606;7.576;2023-06-22T01:16:05;98693.69;;;26.74;52.61
10587;BME280;5341;47.606;7.576;2023-06-22T01:18:36;98691.25;;;26.73;53.09
10587;BME280;5341;47.606;7.576;2023-06-22T01:21:07;98696.19;;;26.71;52.84
10587;BME280;5341;47.606;7.576;2023-06-22T01:23:51;98693.47;;;26.71;53.02
10587;BME280;5341;47.606;7.576;2023-06-22T01:26:27;98688.28;;;26.69;53.00
10587;BME280;5341;47.606;7.576;2023-06-22T01:28:59;98683.88;;;26.68;52.94
10587;BME280;5341;47.606;7.576;2023-06-22T01:31:28;98685.28;;;26.66;53.12
10587;BME280;5341;47.606;7.576;2023-06-22T01:34:00;98671.03;;;26.64;53.29
10587;BME280;5341;47.606;7.576;2023-06-22T01:36:29;98675.16;;;26.61;53.49
10587;BME280;5341;47.606;7.576;2023-06-22T01:38:58;98667.22;;;26.60;53.52
10587;BME280;5341;47.606;7.576;2023-06-22T01:41:27;98675.47;;;26.60;53.42
10587;BME280;5341;47.606;7.576;2023-06-22T01:43:57;98679.59;;;26.57;53.82
10587;BME280;5341;47.606;7.576;2023-06-22T01:46:26;98679.09;;;26.55;53.76
10587;BME280;5341;47.606;7.576;2023-06-22T01:48:54;98682.94;;;26.54;53.60
10587;BME280;5341;47.606;7.576;2023-06-22T01:51:22;98682.94;;;26.54;53.57
10587;BME280;5341;47.606;7.576;2023-06-22T01:53:49;98683.19;;;26.52;53.64
10587;BME280;5341;47.606;7.576;2023-06-22T01:56:18;98674.16;;;26.52;53.95
10587;BME280;5341;47.606;7.576;2023-06-22T01:58:55;98674.16;;;26.52;53.86
10587;BME280;5341;47.606;7.576;2023-06-22T02:01:30;98665.41;;;26.50;54.01
10587;BME280;5341;47.606;7.576;2023-06-22T02:04:03;98656.66;;;26.48;53.86
10587;BME280;5341;47.606;7.576;2023-06-22T02:06:36;98667.09;;;26.46;53.84
10587;BME280;5341;47.606;7.576;2023-06-22T02:09:08;98661.91;;;26.44;53.57
10587;BME280;5341;47.606;7.576;2023-06-22T02:11:41;98668.50;;;26.43;53.93
10587;BME280;5341;47.606;7.576;2023-06-22T02:14:09;98662.75;;;26.40;54.00
10587;BME280;5341;47.606;7.576;2023-06-22T02:16:38;98656.72;;;26.38;53.94
10587;BME280;5341;47.606;7.576;2023-06-22T02:19:06;98656.72;;;26.38;54.24
10587;BME280;5341;47.606;7.576;2023-06-22T02:21:34;98655.09;;;26.37;54.14
10587;BME280;5341;47.606;7.576;2023-06-22T02:24:02;98647.13;;;26.35;54.23
10587;BME280;5341;47.606;7.576;2023-06-22T02:26:30;98645.50;;;26.34;54.03
10587;BME280;5341;47.606;7.576;2023-06-22T02:28:57;98640.31;;;26.33;54.28
10587;BME280;5341;47.606;7.576;2023-06-22T02:31:25;98634.00;;;26.32;54.33
10587;BME280;5341;47.606;7.576;2023-06-22T02:33:57;98632.38;;;26.31;54.50
10587;BME280;5341;47.606;7.576;2023-06-22T02:36:25;98635.41;;;26.29;54.55
10587;BME280;5341;47.606;7.576;2023-06-22T02:38:53;98638.69;;;26.26;54.65
10587;BME280;5341;47.606;7.576;2023-06-22T02:41:23;98648.31;;;26.24;54.75
10587;BME280;5341;47.606;7.576;2023-06-22T02:43:50;98655.22;;;26.16;54.95
10587;BME280;5341;47.606;7.576;2023-06-22T02:46:19;98652.53;;;26.11;54.99
10587;BME280;5341;47.606;7.576;2023-06-22T02:48:48;98643.78;;;26.09;55.05
10587;BME280;5341;47.606;7.576;2023-06-22T02:51:17;98630.38;;;26.08;54.98
10587;BME280;5341;47.606;7.576;2023-06-22T02:53:45;98633.41;;;26.06;55.17
10587;BME280;5341;47.606;7.576;2023-06-22T02:56:14;98634.50;;;26.05;55.15
10587;BME280;5341;47.606;7.576;2023-06-22T02:58:44;98642.75;;;26.05;55.10
10587;BME280;5341;47.606;7.576;2023-06-22T03:01:12;98643.81;;;26.04;54.70
10587;BME280;5341;47.606;7.576;2023-06-22T03:03:42;98647.66;;;26.03;54.81
10587;BME280;5341;47.606;7.576;2023-06-22T03:06:09;98639.19;;;26.05;54.83
10587;BME280;5341;47.606;7.576;2023-06-22T03:08:45;98641.63;;;26.06;54.82
10587;BME280;5341;47.606;7.576;2023-06-22T03:11:14;98640.53;;;26.07;54.83
10587;BME280;5341;47.606;7.576;2023-06-22T03:13:41;98636.69;;;26.08;54.92
10587;BME280;5341;47.606;7.576;2023-06-22T03:16:08;98629.28;;;26.09;54.86
10587;BME280;5341;47.606;7.576;2023-06-22T03:18:39;98635.56;;;26.09;54.78
10587;BME280;5341;47.606;7.576;2023-06-22T03:21:07;98620.22;;;26.08;54.70
10587;BME280;5341;47.606;7.576;2023-06-22T03:23:35;98630.38;;;26.08;54.65
10587;BME280;5341;47.606;7.576;2023-06-22T03:26:05;98625.19;;;26.06;54.65
10587;BME280;5341;47.606;7.576;2023-06-22T03:28:36;98628.47;;;26.03;54.82
10587;BME280;5341;47.606;7.576;2023-06-22T03:31:04;98630.69;;;26.01;54.56
10587;BME280;5341;47.606;7.576;2023-06-22T03:33:34;98625.50;;;25.99;54.58
10587;BME280;5341;47.606;7.576;2023-06-22T03:36:03;98620.31;;;25.98;54.53
10587;BME280;5341;47.606;7.576;2023-06-22T03:38:31;98621.94;;;25.99;54.52
10587;BME280;5341;47.606;7.576;2023-06-22T03:40:59;98623.06;;;25.98;54.70
10587;BME280;5341;47.606;7.576;2023-06-22T03:43:30;98631.03;;;25.94;54.82
10587;BME280;5341;47.606;7.576;2023-06-22T03:45:59;98625.00;;;25.92;54.79
10587;BME280;5341;47.606;7.576;2023-06-22T03:48:26;98621.44;;;25.92;54.52
10587;BME280;5341;47.606;7.576;2023-06-22T03:50:54;98628.84;;;25.91;54.75
10587;BME280;5341;47.606;7.576;2023-06-22T03:53:23;98632.16;;;25.88;54.81
10587;BME280;5341;47.606;7.576;2023-06-22T03:55:51;98632.44;;;25.87;54.78
10587;BME280;5341;47.606;7.576;2023-06-22T03:58:19;98630.28;;;25.84;54.82
10587;BME280;5341;47.606;7.576;2023-06-22T04:00:49;98631.38;;;25.83;54.67
10587;BME280;5341;47.606;7.576;2023-06-22T04:03:18;98635.50;;;25.80;54.73
10587;BME280;5341;47.606;7.576;2023-06-22T04:05:47;98638.81;;;25.77;54.82
10587;BME280;5341;47.606;7.576;2023-06-22T04:08:15;98638.28;;;25.75;54.70
10587;BME280;5341;47.606;7.576;2023-06-22T04:10:43;98631.16;;;25.74;54.78
10587;BME280;5341;47.606;7.576;2023-06-22T04:13:10;98646.78;;;25.74;54.69
10587;BME280;5341;47.606;7.576;2023-06-22T04:15:38;98643.53;;;25.72;54.77
10587;BME280;5341;47.606;7.576;2023-06-22T04:18:07;98640.50;;;25.73;54.71
10587;BME280;5341;47.606;7.576;2023-06-22T04:20:35;98641.59;;;25.72;54.76
10587;BME280;5341;47.606;7.576;2023-06-22T04:23:03;98642.41;;;25.67;54.94
10587;BME280;5341;47.606;7.576;2023-06-22T04:25:30;98649.25;;;25.65;55.07
10587;BME280;5341;47.606;7.576;2023-06-22T04:27:58;98644.59;;;25.65;54.94
10587;BME280;5341;47.606;7.576;2023-06-22T04:30:31;98640.75;;;25.66;54.84
10587;BME280;5341;47.606;7.576;2023-06-22T04:33:14;98637.22;;;25.66;55.07
10587;BME280;5341;47.606;7.576;2023-06-22T04:35:41;98635.28;;;25.66;54.84
10587;BME280;5341;47.606;7.576;2023-06-22T04:38:09;98638.84;;;25.67;55.08
10587;BME280;5341;47.606;7.576;2023-06-22T04:40:37;98638.84;;;25.67;54.86
10587;BME280;5341;47.606;7.576;2023-06-22T04:43:04;98632.25;;;25.68;55.00
10587;BME280;5341;47.606;7.576;2023-06-22T04:45:32;98636.69;;;25.69;54.91
10587;BME280;5341;47.606;7.576;2023-06-22T04:48:01;98628.19;;;25.70;54.88
10587;BME280;5341;47.606;7.576;2023-06-22T04:50:30;98639.16;;;25.70;54.96
10587;BME280;5341;47.606;7.576;2023-06-22T04:52:57;98626.56;;;25.69;55.04
10587;BME280;5341;47.606;7.576;2023-06-22T04:55:25;98629.28;;;25.69;55.06
10587;BME280;5341;47.606;7.576;2023-06-22T04:57:52;98618.34;;;25.69;55.12
10587;BME280;5341;47.606;7.576;2023-06-22T05:00:20;98620.78;;;25.71;55.16
10587;BME280;5341;47.606;7.576;2023-06-22T05:02:49;98630.63;;;25.72;54.98
10587;BME280;5341;47.606;7.576;2023-06-22T05:05:16;98627.63;;;25.74;55.02
10587;BME280;5341;47.606;7.576;2023-06-22T05:07:46;98612.81;;;25.75;55.36
10587;BME280;5341;47.606;7.576;2023-06-22T05:10:16;98617.47;;;25.74;55.38
10587;BME280;5341;47.606;7.576;2023-06-22T05:12:43;98624.88;;;25.74;55.20
10587;BME280;5341;47.606;7.576;2023-06-22T05:15:11;98624.88;;;25.74;55.34
10587;BME280;5341;47.606;7.576;2023-06-22T05:17:39;98612.53;;;25.76;55.25
10587;BME280;5341;47.606;7.576;2023-06-22T05:20:09;98610.31;;;25.78;55.25
10587;BME280;5341;47.606;7.576;2023-06-22T05:22:37;98610.03;;;25.80;55.19
10587;BME280;5341;47.606;7.576;2023-06-22T05:25:09;98618.50;;;25.83;55.26
10587;BME280;5341;47.606;7.576;2023-06-22T05:27:37;98620.44;;;25.83;55.34
10587;BME280;5341;47.606;7.576;2023-06-22T05:30:06;98616.28;;;25.85;55.51
10587;BME280;5341;47.606;7.576;2023-06-22T05:32:34;98612.75;;;25.85;55.78
10587;BME280;5341;47.606;7.576;2023-06-22T05:35:01;98622.91;;;25.79;55.63
10587;BME280;5341;47.606;7.576;2023-06-22T05:37:29;98616.59;;;25.79;55.68
10587;BME280;5341;47.606;7.576;2023-06-22T05:39:56;98609.19;;;25.79;55.78
10587;BME280;5341;47.606;7.576;2023-06-22T05:42:25;98604.53;;;25.80;55.68
10587;BME280;5341;47.606;7.576;2023-06-22T05:44:53;98604.84;;;25.78;55.70
10587;BME280;5341;47.606;7.576;2023-06-22T05:47:21;98600.75;;;25.76;55.82
10587;BME280;5341;47.606;7.576;2023-06-22T05:49:48;98587.34;;;25.74;56.00
10587;BME280;5341;47.606;7.576;2023-06-22T05:52:16;98587.38;;;25.69;56.27
10587;BME280;5341;47.606;7.576;2023-06-22T05:54:43;98588.78;;;25.61;56.41
10587;BME280;5341;47.606;7.576;2023-06-22T05:57:11;98596.75;;;25.58;56.53
10587;BME280;5341;47.606;7.576;2023-06-22T05:59:39;98610.16;;;25.59;56.45
10587;BME280;5341;47.606;7.576;2023-06-22T06:02:07;98615.88;;;25.63;56.38
10587;BME280;5341;47.606;7.576;2023-06-22T06:04:34;98631.78;;;25.61;57.56
10587;BME280;5341;47.606;7.576;2023-06-22T06:07:02;98639.75;;;25.57;57.15
10587;BME280;5341;47.606;7.576;2023-06-22T06:09:29;98640.00;;;25.61;56.99
10587;BME280;5341;47.606;7.576;2023-06-22T06:11:57;98658.88;;;25.62;57.37
10587;BME280;5341;47.606;7.576;2023-06-22T06:14:24;98675.41;;;25.42;58.94
10587;BME280;5341;47.606;7.576;2023-06-22T06:16:53;98676.63;;;25.05;61.20
10587;BME280;5341;47.606;7.576;2023-06-22T06:19:20;98679.16;;;24.71;61.83
10587;BME280;5341;47.606;7.576;2023-06-22T06:21:48;98702.44;;;24.64;62.71
10587;BME280;5341;47.606;7.576;2023-06-22T06:24:16;98727.88;;;24.49;63.76
10587;BME280;5341;47.606;7.576;2023-06-22T06:26:43;98742.34;;;24.34;64.84
10587;BME280;5341;47.606;7.576;2023-06-22T06:29:10;98725.63;;;24.15;65.68
10587;BME280;5341;47.606;7.576;2023-06-22T06:31:38;98717.69;;;24.09;65.36
10587;BME280;5341;47.606;7.576;2023-06-22T06:34:07;98739.00;;;24.22;64.46
10587;BME280;5341;47.606;7.576;2023-06-22T06:36:34;98772.41;;;24.44;63.66
10587;BME280;5341;47.606;7.576;2023-06-22T06:39:03;98785.84;;;24.61;63.38
10587;BME280;5341;47.606;7.576;2023-06-22T06:41:31;98780.91;;;24.78;62.84
10587;BME280;5341;47.606;7.576;2023-06-22T06:44:00;98751.34;;;24.96;62.00
10587;BME280;5341;47.606;7.576;2023-06-22T06:46:33;98720.44;;;25.10;61.50
10587;BME280;5341;47.606;7.576;2023-06-22T06:49:01;98711.09;;;25.22;61.28
10587;BME280;5341;47.606;7.576;2023-06-22T06:51:30;98767.16;;;25.29;60.72
10587;BME280;5341;47.606;7.576;2023-06-22T06:53:58;98789.03;;;25.39;60.30
10587;BME280;5341;47.606;7.576;2023-06-22T06:56:26;98771.53;;;25.46;60.30
10587;BME280;5341;47.606;7.576;2023-06-22T06:58:53;98769.81;;;25.55;60.08
10587;BME280;5341;47.606;7.576;2023-06-22T07:01:21;98735.84;;;25.61;59.97
10587;BME280;5341;47.606;7.576;2023-06-22T07:03:49;98727.34;;;25.62;59.96
10587;BME280;5341;47.606;7.576;2023-06-22T07:06:16;98738.88;;;25.59;60.57
10587;BME280;5341;47.606;7.576;2023-06-22T07:08:45;98720.28;;;25.51;60.48
10587;BME280;5341;47.606;7.576;2023-06-22T07:11:13;98683.56;;;25.52;60.31
10587;BME280;5341;47.606;7.576;2023-06-22T07:13:40;98680.25;;;25.55;60.23
10587;BME280;5341;47.606;7.576;2023-06-22T07:16:07;98687.94;;;25.58;60.51
10587;BME280;5341;47.606;7.576;2023-06-22T07:18:35;98713.94;;;25.56;60.99
10587;BME280;5341;47.606;7.576;2023-06-22T07:21:02;98731.22;;;25.51;60.86
10587;BME280;5341;47.606;7.576;2023-06-22T07:23:32;98756.41;;;25.53;61.54
10587;BME280;5341;47.606;7.576;2023-06-22T07:26:01;98739.97;;;25.58;61.33
10587;BME280;5341;47.606;7.576;2023-06-22T07:28:29;98750.31;;;25.66;60.67
10587;BME280;5341;47.606;7.576;2023-06-22T07:30:56;98743.47;;;25.74;60.08
10587;BME280;5341;47.606;7.576;2023-06-22T07:33:24;98736.88;;;25.80;59.83
10587;BME280;5341;47.606;7.576;2023-06-22T07:35:51;98742.09;;;25.82;60.46
10587;BME280;5341;47.606;7.576;2023-06-22T07:38:19;98755.00;;;25.71;60.60
10587;BME280;5341;47.606;7.576;2023-06-22T07:40:46;98746.22;;;25.74;60.63
10587;BME280;5341;47.606;7.576;2023-06-22T07:43:15;98726.47;;;25.82;60.16
10587;BME280;5341;47.606;7.576;2023-06-22T07:45:48;98725.56;;;25.92;59.80
10587;BME280;5341;47.606;7.576;2023-06-22T07:48:19;98738.44;;;25.96;59.76
10587;BME280;5341;47.606;7.576;2023-06-22T07:50:47;98716.22;;;25.98;60.00
10587;BME280;5341;47.606;7.576;2023-06-22T07:53:14;98692.63;;;26.02;59.70
10587;BME280;5341;47.606;7.576;2023-06-22T07:55:42;98690.97;;;26.06;59.61
10587;BME280;5341;47.606;7.576;2023-06-22T07:58:10;98679.72;;;26.08;59.41
10587;BME280;5341;47.606;7.576;2023-06-22T08:00:38;98676.97;;;26.08;59.63
10587;BME280;5341;47.606;7.576;2023-06-22T08:03:06;98666.78;;;26.13;59.14
10587;BME280;5341;47.606;7.576;2023-06-22T08:05:34;98639.03;;;26.20;59.31
10587;BME280;5341;47.606;7.576;2023-06-22T08:08:01;98619.81;;;26.25;59.14
10587;BME280;5341;47.606;7.576;2023-06-22T08:10:28;98613.22;;;26.26;59.42
10587;BME280;5341;47.606;7.576;2023-06-22T08:12:56;98620.53;;;26.36;60.00
10587;BME280;5341;47.606;7.576;2023-06-22T08:15:23;98627.59;;;26.47;60.97
10587;BME280;5341;47.606;7.576;2023-06-22T08:17:52;98590.72;;;26.58;60.50
10587;BME280;5341;47.606;7.576;2023-06-22T08:20:19;98585.13;;;26.68;59.88
10587;BME280;5341;47.606;7.576;2023-06-22T08:22:47;98584.19;;;26.78;60.09
10587;BME280;5341;47.606;7.576;2023-06-22T08:25:14;98573.44;;;26.81;59.14
10587;BME280;5341;47.606;7.576;2023-06-22T08:27:45;98565.22;;;26.81;59.13
10587;BME280;5341;47.606;7.576;2023-06-22T08:30:13;98549.25;;;26.83;58.61
10587;BME280;5341;47.606;7.576;2023-06-22T08:32:40;98548.22;;;26.79;58.11
10587;BME280;5341;47.606;7.576;2023-06-22T08:35:10;98555.34;;;26.80;58.47
10587;BME280;5341;47.606;7.576;2023-06-22T08:37:37;98565.13;;;26.86;58.69
10587;BME280;5341;47.606;7.576;2023-06-22T08:40:06;98567.53;;;26.93;58.21
10587;BME280;5341;47.606;7.576;2023-06-22T08:42:35;98555.38;;;26.99;57.88
10587;BME280;5341;47.606;7.576;2023-06-22T08:45:04;98555.66;;;27.03;58.26
10587;BME280;5341;47.606;7.576;2023-06-22T08:47:31;98564.31;;;27.10;58.19
10587;BME280;5341;47.606;7.576;2023-06-22T08:49:59;98560.41;;;27.16;57.79
10587;BME280;5341;47.606;7.576;2023-06-22T08:52:29;98554.84;;;27.21;57.73
10587;BME280;5341;47.606;7.576;2023-06-22T08:54:57;98563.03;;;27.26;57.11
10587;BME280;5341;47.606;7.576;2023-06-22T08:57:25;98548.69;;;27.29;57.39
10587;BME280;5341;47.606;7.576;2023-06-22T08:59:52;98552.47;;;27.33;57.10
10587;BME280;5341;47.606;7.576;2023-06-22T09:02:24;98553.28;;;27.34;57.17
10587;BME280;5341;47.606;7.576;2023-06-22T09:04:51;98547.28;;;27.32;57.11
10587;BME280;5341;47.606;7.576;2023-06-22T09:07:22;98551.34;;;27.34;56.73
10587;BME280;5341;47.606;7.576;2023-06-22T09:09:52;98549.66;;;27.38;56.63
10587;BME280;5341;47.606;7.576;2023-06-22T09:12:20;98554.56;;;27.41;57.06
10587;BME280;5341;47.606;7.576;2023-06-22T09:14:51;98551.50;;;27.43;56.83
10587;BME280;5341;47.606;7.576;2023-06-22T09:17:19;98541.63;;;27.42;56.60
10587;BME280;5341;47.606;7.576;2023-06-22T09:19:46;98533.09;;;27.43;56.61
10587;BME280;5341;47.606;7.576;2023-06-22T09:22:14;98529.75;;;27.47;56.87
10587;BME280;5341;47.606;7.576;2023-06-22T09:24:42;98544.81;;;27.49;56.23
10587;BME280;5341;47.606;7.576;2023-06-22T09:27:11;98551.13;;;27.50;56.25
10587;BME280;5341;47.606;7.576;2023-06-22T09:29:38;98556.34;;;27.51;56.12
10587;BME280;5341;47.606;7.576;2023-06-22T09:32:07;98551.88;;;27.55;55.75
10587;BME280;5341;47.606;7.576;2023-06-22T09:34:34;98546.28;;;27.60;55.76
10587;BME280;5341;47.606;7.576;2023-06-22T09:37:01;98550.63;;;27.66;56.30
10587;BME280;5341;47.606;7.576;2023-06-22T09:39:29;98546.66;;;27.72;56.02
10587;BME280;5341;47.606;7.576;2023-06-22T09:41:58;98539.47;;;27.77;56.11
10587;BME280;5341;47.606;7.576;2023-06-22T09:44:27;98532.25;;;27.81;55.87
10587;BME280;5341;47.606;7.576;2023-06-22T09:46:54;98522.28;;;27.85;56.21
10587;BME280;5341;47.606;7.576;2023-06-22T09:49:22;98522.50;;;27.88;55.91
10587;BME280;5341;47.606;7.576;2023-06-22T09:51:49;98526.59;;;27.91;55.67
10587;BME280;5341;47.606;7.576;2023-06-22T09:54:20;98532.09;;;27.91;55.36
10587;BME280;5341;47.606;7.576;2023-06-22T09:56:53;98539.53;;;27.90;54.70
10587;BME280;5341;47.606;7.576;2023-06-22T09:59:20;98537.88;;;27.89;54.98
10587;BME280;5341;47.606;7.576;2023-06-22T10:01:50;98540.13;;;27.87;55.21
10587;BME280;5341;47.606;7.576;2023-06-22T10:04:17;98534.63;;;27.87;55.12
10587;BME280;5341;47.606;7.576;2023-06-22T10:06:45;98525.56;;;27.87;56.27
10587;BME280;5341;47.606;7.576;2023-06-22T10:09:12;98524.44;;;27.88;56.52
10587;BME280;5341;47.606;7.576;2023-06-22T10:11:39;98529.03;;;27.92;56.78
10587;BME280;5341;47.606;7.576;2023-06-22T10:14:07;98536.16;;;27.93;57.61
10587;BME280;5341;47.606;7.576;2023-06-22T10:16:36;98541.66;;;27.93;57.04
10587;BME280;5341;47.606;7.576;2023-06-22T10:19:12;98542.16;;;27.95;56.94
10587;BME280;5341;47.606;7.576;2023-06-22T10:21:40;98555.31;;;27.98;56.57
10587;BME280;5341;47.606;7.576;2023-06-22T10:24:07;98564.38;;;27.99;58.38
10587;BME280;5341;47.606;7.576;2023-06-22T10:26:36;98552.34;;;27.95;58.15
10587;BME280;5341;47.606;7.576;2023-06-22T10:29:04;98548.88;;;27.89;56.75
10587;BME280;5341;47.606;7.576;2023-06-22T10:31:31;98552.22;;;27.86;56.86
10587;BME280;5341;47.606;7.576;2023-06-22T10:33:59;98570.88;;;27.89;57.84
10587;BME280;5341;47.606;7.576;2023-06-22T10:36:28;98575.66;;;27.97;57.78
10587;BME280;5341;47.606;7.576;2023-06-22T10:38:55;98576.41;;;28.03;56.72
10587;BME280;5341;47.606;7.576;2023-06-22T10:41:25;98576.31;;;28.08;56.73
10587;BME280;5341;47.606;7.576;2023-06-22T10:43:55;98591.91;;;28.13;56.89
10587;BME280;5341;47.606;7.576;2023-06-22T10:46:24;98602.63;;;28.14;56.78
10587;BME280;5341;47.606;7.576;2023-06-22T10:48:52;98597.41;;;28.13;57.02
10587;BME280;5341;47.606;7.576;2023-06-22T10:51:21;98609.25;;;28.13;57.09
10587;BME280;5341;47.606;7.576;2023-06-22T10:53:49;98599.88;;;28.14;57.61
10587;BME280;5341;47.606;7.576;2023-06-22T10:56:18;98605.25;;;28.19;57.58
10587;BME280;5341;47.606;7.576;2023-06-22T10:58:46;98614.56;;;28.23;57.71
10587;BME280;5341;47.606;7.576;2023-06-22T11:01:13;98625.19;;;28.30;58.46
10587;BME280;5341;47.606;7.576;2023-06-22T11:03:41;98625.13;;;28.35;58.07
10587;BME280;5341;47.606;7.576;2023-06-22T11:06:08;98620.63;;;28.39;57.44
10587;BME280;5341;47.606;7.576;2023-06-22T11:08:35;98631.03;;;28.42;57.81
10587;BME280;5341;47.606;7.576;2023-06-22T11:11:04;98637.84;;;28.45;59.51
10587;BME280;5341;47.606;7.576;2023-06-22T11:13:32;98642.78;;;28.48;58.22
10587;BME280;5341;47.606;7.576;2023-06-22T11:15:59;98647.66;;;28.51;58.06
10587;BME280;5341;47.606;7.576;2023-06-22T11:18:26;98654.81;;;28.52;57.81
10587;BME280;5341;47.606;7.576;2023-06-22T11:20:54;98654.50;;;28.53;57.24
10587;BME280;5341;47.606;7.576;2023-06-22T11:23:21;98647.66;;;28.51;58.07
10587;BME280;5341;47.606;7.576;2023-06-22T11:25:48;98628.22;;;28.47;58.08
10587;BME280;5341;47.606;7.576;2023-06-22T11:28:17;98639.22;;;28.47;57.78
10587;BME280;5341;47.606;7.576;2023-06-22T11:30:45;98625.66;;;28.51;58.02
10587;BME280;5341;47.606;7.576;2023-06-22T11:33:12;98617.91;;;28.53;57.89
10587;BME280;5341;47.606;7.576;2023-06-22T11:35:40;98608.53;;;28.54;57.72
10587;BME280;5341;47.606;7.576;2023-06-22T11:38:08;98608.22;;;28.55;57.32
10587;BME280;5341;47.606;7.576;2023-06-22T11:40:35;98604.03;;;28.58;57.21
10587;BME280;5341;47.606;7.576;2023-06-22T11:43:03;98602.66;;;28.60;56.96
10587;BME280;5341;47.606;7.576;2023-06-22T11:45:32;98600.59;;;28.66;56.90
10587;BME280;5341;47.606;7.576;2023-06-22T11:48:00;98602.16;;;28.72;56.79
10587;BME280;5341;47.606;7.576;2023-06-22T11:50:27;98603.66;;;28.78;56.59
10587;BME280;5341;47.606;7.576;2023-06-22T11:52:56;98622.53;;;28.85;57.07
10587;BME280;5341;47.606;7.576;2023-06-22T11:55:23;98654.19;;;29.01;57.99
10587;BME280;5341;47.606;7.576;2023-06-22T11:57:55;98691.28;;;29.17;57.61
10587;BME280;5341;47.606;7.576;2023-06-22T12:00:24;98688.84;;;29.30;57.03
10587;BME280;5341;47.606;7.576;2023-06-22T12:02:53;98674.47;;;29.33;57.18
10587;BME280;5341;47.606;7.576;2023-06-22T12:05:21;98669.06;;;29.28;57.12
10587;BME280;5341;47.606;7.576;2023-06-22T12:07:49;98669.78;;;29.06;57.23
10587;BME280;5341;47.606;7.576;2023-06-22T12:10:19;98668.06;;;28.96;58.10
10587;BME280;5341;47.606;7.576;2023-06-22T12:12:47;98659.69;;;28.87;57.68
10587;BME280;5341;47.606;7.576;2023-06-22T12:15:14;98658.09;;;28.81;57.44
10587;BME280;5341;47.606;7.576;2023-06-22T12:17:42;98664.53;;;28.77;58.35
10587;BME280;5341;47.606;7.576;2023-06-22T12:20:11;98668.28;;;28.81;57.72
10587;BME280;5341;47.606;7.576;2023-06-22T12:22:39;98676.47;;;28.86;57.19
10587;BME280;5341;47.606;7.576;2023-06-22T12:25:07;98674.47;;;28.92;56.77
10587;BME280;5341;47.606;7.576;2023-06-22T12:27:34;98684.47;;;28.87;53.96
10587;BME280;5341;47.606;7.576;2023-06-22T12:30:03;98688.38;;;28.81;54.43
10587;BME280;5341;47.606;7.576;2023-06-22T12:32:31;98680.44;;;28.80;54.88
10587;BME280;5341;47.606;7.576;2023-06-22T12:34:58;98668.72;;;28.74;55.01
10587;BME280;5341;47.606;7.576;2023-06-22T12:37:27;98677.16;;;28.78;55.67
10587;BME280;5341;47.606;7.576;2023-06-22T12:39:55;98677.59;;;28.71;54.61
10587;BME280;5341;47.606;7.576;2023-06-22T12:42:22;98681.16;;;28.72;55.85
10587;BME280;5341;47.606;7.576;2023-06-22T12:44:50;98689.00;;;28.78;56.43
10587;BME280;5341;47.606;7.576;2023-06-22T12:47:17;98684.97;;;28.89;56.31
10587;BME280;5341;47.606;7.576;2023-06-22T12:49:46;98688.66;;;28.99;55.82
10587;BME280;5341;47.606;7.576;2023-06-22T12:52:13;98697.13;;;29.02;55.61
10587;BME280;5341;47.606;7.576;2023-06-22T12:54:42;98685.41;;;29.10;55.59
10587;BME280;5341;47.606;7.576;2023-06-22T12:57:09;98687.53;;;29.13;55.19
10587;BME280;5341;47.606;7.576;2023-06-22T12:59:40;98690.59;;;29.12;54.56
10587;BME280;5341;47.606;7.576;2023-06-22T13:02:08;98691.59;;;29.02;53.83
10587;BME280;5341;47.606;7.576;2023-06-22T13:04:35;98685.78;;;28.90;51.80
10587;BME280;5341;47.606;7.576;2023-06-22T13:07:04;98692.75;;;28.82;52.99
10587;BME280;5341;47.606;7.576;2023-06-22T13:09:31;98685.84;;;28.85;52.05
10587;BME280;5341;47.606;7.576;2023-06-22T13:12:02;98665.34;;;28.77;51.51
10587;BME280;5341;47.606;7.576;2023-06-22T13:14:29;98665.84;;;28.79;51.86
10587;BME280;5341;47.606;7.576;2023-06-22T13:16:56;98686.97;;;28.84;52.47